sensor_id;sensor_type;location;lat;lon;timestamp;P1;durP1;ratioP1;P2;durP2;ratioP2
11681;SDS011;5897;42.640;23.310;2023-07-28T00:01:50;1.70;;;1.58;;
11681;SDS011;5897;42.640;23.310;2023-07-28T00:04:17;2.47;;;1.63;;
11681;SDS011;5897;42.640;23.310;2023-07-28T00:06:44;2.78;;;1.50;;
11681;SDS011;5897;42.640;23.310;2023-07-28T00:09:11;1.70;;;1.60;;
11681;SDS011;5897;42.640;23.310;2023-07-28T00:11:37;1.67;;;1.52;;
11681;SDS011;5897;42.640;23.310;2023-07-28T00:14:04;2.35;;;1.40;;
11681;SDS011;5897;42.640;23.310;2023-07-28T00:16:32;1.60;;;1.50;;
11681;SDS011;5897;42.640;23.310;2023-07-28T00:18:59;4.13;;;1.63;;
11681;SDS011;5897;42.640;23.310;2023-07-28T00:21:26;1.50;;;1.40;;
11681;SDS011;5897;42.640;23.310;2023-07-28T00:23:53;3.20;;;1.55;;
11681;SDS011;5897;42.640;23.310;2023-07-28T00:26:19;2.55;;;1.70;;
11681;SDS011;5897;42.640;23.310;2023-07-28T00:28:46;1.60;;;1.30;;
11681;SDS011;5897;42.640;23.310;2023-07-28T00:31:13;4.32;;;1.85;;
11681;SDS011;5897;42.640;23.310;2023-07-28T00:33:41;2.58;;;1.50;;
11681;SDS011;5897;42.640;23.310;2023-07-28T00:36:08;1.70;;;1.60;;
11681;SDS011;5897;42.640;23.310;2023-07-28T00:38:35;1.70;;;1.60;;
11681;SDS011;5897;42.640;23.310;2023-07-28T00:41:01;1.60;;;1.45;;
11681;SDS011;5897;42.640;23.310;2023-07-28T00:43:28;1.70;;;1.60;;
11681;SDS011;5897;42.640;23.310;2023-07-28T00:45:55;1.48;;;1.38;;
11681;SDS011;5897;42.640;23.310;2023-07-28T00:48:22;2.00;;;1.80;;
11681;SDS011;5897;42.640;23.310;2023-07-28T00:50:52;2.20;;;1.70;;
11681;SDS011;5897;42.640;23.310;2023-07-28T00:53:19;2.47;;;1.50;;
11681;SDS011;5897;42.640;23.310;2023-07-28T00:55:48;1.83;;;1.55;;
11681;SDS011;5897;42.640;23.310;2023-07-28T00:58:15;2.05;;;1.85;;
11681;SDS011;5897;42.640;23.310;2023-07-28T01:00:42;1.48;;;1.38;;
11681;SDS011;5897;42.640;23.310;2023-07-28T01:03:08;4.68;;;2.30;;
11681;SDS011;5897;42.640;23.310;2023-07-28T01:05:38;4.95;;;2.00;;
11681;SDS011;5897;42.640;23.310;2023-07-28T01:08:16;1.77;;;1.67;;
11681;SDS011;5897;42.640;23.310;2023-07-28T01:10:49;3.05;;;1.60;;
11681;SDS011;5897;42.640;23.310;2023-07-28T01:13:17;1.60;;;1.50;;
11681;SDS011;5897;42.640;23.310;2023-07-28T01:15:43;2.13;;;1.80;;
11681;SDS011;5897;42.640;23.310;2023-07-28T01:18:11;2.25;;;1.70;;
11681;SDS011;5897;42.640;23.310;2023-07-28T01:20:38;2.60;;;1.90;;
11681;SDS011;5897;42.640;23.310;2023-07-28T01:23:07;2.63;;;1.98;;
11681;SDS011;5897;42.640;23.310;2023-07-28T01:25:39;2.90;;;1.98;;
11681;SDS011;5897;42.640;23.310;2023-07-28T01:28:16;2.78;;;1.65;;
11681;SDS011;5897;42.640;23.310;2023-07-28T01:30:43;1.73;;;1.63;;
11681;SDS011;5897;42.640;23.310;2023-07-28T01:33:11;2.63;;;1.70;;
11681;SDS011;5897;42.640;23.310;2023-07-28T01:35:38;2.15;;;1.95;;
11681;SDS011;5897;42.640;23.310;2023-07-28T01:38:05;2.75;;;2.00;;
11681;SDS011;5897;42.640;23.310;2023-07-28T01:40:32;2.20;;;1.90;;
11681;SDS011;5897;42.640;23.310;2023-07-28T01:42:58;3.28;;;2.10;;
11681;SDS011;5897;42.640;23.310;2023-07-28T01:45:27;2.30;;;2.10;;
11681;SDS011;5897;42.640;23.310;2023-07-28T01:47:53;3.05;;;2.10;;
11681;SDS011;5897;42.640;23.310;2023-07-28T01:50:20;7.15;;;2.55;;
11681;SDS011;5897;42.640;23.310;2023-07-28T01:52:47;2.45;;;2.08;;
11681;SDS011;5897;42.640;23.310;2023-07-28T01:55:14;3.38;;;2.22;;
11681;SDS011;5897;42.640;23.310;2023-07-28T01:57:40;2.90;;;2.40;;
11681;SDS011;5897;42.640;23.310;2023-07-28T02:00:17;3.08;;;2.78;;
11681;SDS011;5897;42.640;23.310;2023-07-28T02:02:45;4.97;;;2.50;;
11681;SDS011;5897;42.640;23.310;2023-07-28T02:05:12;4.82;;;2.72;;
11681;SDS011;5897;42.640;23.310;2023-07-28T02:07:39;2.90;;;2.60;;
11681;SDS011;5897;42.640;23.310;2023-07-28T02:10:06;4.82;;;2.60;;
11681;SDS011;5897;42.640;23.310;2023-07-28T02:12:33;3.08;;;2.78;;
11681;SDS011;5897;42.640;23.310;2023-07-28T02:15:00;3.58;;;2.90;;
11681;SDS011;5897;42.640;23.310;2023-07-28T02:17:27;3.10;;;2.90;;
11681;SDS011;5897;42.640;23.310;2023-07-28T02:19:55;5.03;;;2.80;;
11681;SDS011;5897;42.640;23.310;2023-07-28T02:22:22;3.53;;;3.22;;
11681;SDS011;5897;42.640;23.310;2023-07-28T02:24:48;3.83;;;3.20;;
11681;SDS011;5897;42.640;23.310;2023-07-28T02:27:15;3.58;;;3.28;;
11681;SDS011;5897;42.640;23.310;2023-07-28T02:29:42;5.47;;;2.78;;
11681;SDS011;5897;42.640;23.310;2023-07-28T02:32:09;4.18;;;3.13;;
11681;SDS011;5897;42.640;23.310;2023-07-28T02:34:35;3.90;;;3.17;;
11681;SDS011;5897;42.640;23.310;2023-07-28T02:37:03;9.10;;;3.40;;
11681;SDS011;5897;42.640;23.310;2023-07-28T02:39:30;4.50;;;3.10;;
11681;SDS011;5897;42.640;23.310;2023-07-28T02:41:57;5.57;;;3.05;;
11681;SDS011;5897;42.640;23.310;2023-07-28T02:44:24;5.18;;;3.67;;
11681;SDS011;5897;42.640;23.310;2023-07-28T02:46:51;4.28;;;3.38;;
11681;SDS011;5897;42.640;23.310;2023-07-28T02:49:17;5.95;;;3.35;;
11681;SDS011;5897;42.640;23.310;2023-07-28T02:51:44;5.45;;;3.10;;
11681;SDS011;5897;42.640;23.310;2023-07-28T02:54:12;6.80;;;3.60;;
11681;SDS011;5897;42.640;23.310;2023-07-28T02:56:39;4.45;;;3.30;;
11681;SDS011;5897;42.640;23.310;2023-07-28T02:59:06;4.22;;;3.53;;
11681;SDS011;5897;42.640;23.310;2023-07-28T03:01:33;3.88;;;3.50;;
11681;SDS011;5897;42.640;23.310;2023-07-28T03:04:00;3.97;;;3.60;;
11681;SDS011;5897;42.640;23.310;2023-07-28T03:06:27;4.00;;;3.70;;
11681;SDS011;5897;42.640;23.310;2023-07-28T03:08:54;6.05;;;3.60;;
11681;SDS011;5897;42.640;23.310;2023-07-28T03:11:22;4.10;;;3.47;;
11681;SDS011;5897;42.640;23.310;2023-07-28T03:13:49;3.83;;;3.50;;
11681;SDS011;5897;42.640;23.310;2023-07-28T03:16:16;3.60;;;3.30;;
11681;SDS011;5897;42.640;23.310;2023-07-28T03:18:43;4.15;;;3.75;;
11681;SDS011;5897;42.640;23.310;2023-07-28T03:21:09;5.20;;;3.95;;
11681;SDS011;5897;42.640;23.310;2023-07-28T03:23:36;3.97;;;3.67;;
11681;SDS011;5897;42.640;23.310;2023-07-28T03:26:03;3.70;;;3.40;;
11681;SDS011;5897;42.640;23.310;2023-07-28T03:28:31;4.95;;;3.88;;
11681;SDS011;5897;42.640;23.310;2023-07-28T03:30:58;4.35;;;3.63;;
11681;SDS011;5897;42.640;23.310;2023-07-28T03:33:25;7.43;;;3.85;;
11681;SDS011;5897;42.640;23.310;2023-07-28T03:35:51;7.78;;;3.67;;
11681;SDS011;5897;42.640;23.310;2023-07-28T03:38:18;5.13;;;4.05;;
11681;SDS011;5897;42.640;23.310;2023-07-28T03:40:45;8.80;;;4.57;;
11681;SDS011;5897;42.640;23.310;2023-07-28T03:43:12;8.68;;;4.28;;
11681;SDS011;5897;42.640;23.310;2023-07-28T03:45:40;8.48;;;4.30;;
11681;SDS011;5897;42.640;23.310;2023-07-28T03:48:07;5.97;;;3.72;;
11681;SDS011;5897;42.640;23.310;2023-07-28T03:50:34;8.05;;;3.67;;
11681;SDS011;5897;42.640;23.310;2023-07-28T03:53:00;7.55;;;4.20;;
11681;SDS011;5897;42.640;23.310;2023-07-28T03:55:27;5.18;;;3.67;;
11681;SDS011;5897;42.640;23.310;2023-07-28T03:57:54;4.95;;;3.67;;
11681;SDS011;5897;42.640;23.310;2023-07-28T04:00:21;7.63;;;4.03;;
11681;SDS011;5897;42.640;23.310;2023-07-28T04:02:49;9.68;;;4.28;;
11681;SDS011;5897;42.640;23.310;2023-07-28T04:05:16;6.00;;;3.45;;
11681;SDS011;5897;42.640;23.310;2023-07-28T04:07:43;5.63;;;3.92;;
11681;SDS011;5897;42.640;23.310;2023-07-28T04:10:10;3.78;;;3.47;;
11681;SDS011;5897;42.640;23.310;2023-07-28T04:12:36;7.53;;;3.97;;
11681;SDS011;5897;42.640;23.310;2023-07-28T04:15:03;3.92;;;3.60;;
11681;SDS011;5897;42.640;23.310;2023-07-28T04:17:31;3.65;;;3.35;;
11681;SDS011;5897;42.640;23.310;2023-07-28T04:19:59;7.03;;;4.13;;
11681;SDS011;5897;42.640;23.310;2023-07-28T04:22:26;4.20;;;3.33;;
11681;SDS011;5897;42.640;23.310;2023-07-28T04:24:53;5.25;;;3.90;;
11681;SDS011;5897;42.640;23.310;2023-07-28T04:27:20;3.83;;;3.40;;
11681;SDS011;5897;42.640;23.310;2023-07-28T04:29:47;6.40;;;3.58;;
11681;SDS011;5897;42.640;23.310;2023-07-28T04:32:14;3.80;;;3.42;;
11681;SDS011;5897;42.640;23.310;2023-07-28T04:34:41;5.53;;;3.53;;
11681;SDS011;5897;42.640;23.310;2023-07-28T04:37:09;4.47;;;3.30;;
11681;SDS011;5897;42.640;23.310;2023-07-28T04:39:36;4.40;;;3.30;;
11681;SDS011;5897;42.640;23.310;2023-07-28T04:42:03;7.35;;;3.67;;
11681;SDS011;5897;42.640;23.310;2023-07-28T04:44:29;5.43;;;3.60;;
11681;SDS011;5897;42.640;23.310;2023-07-28T04:46:56;6.13;;;3.30;;
11681;SDS011;5897;42.640;23.310;2023-07-28T04:49:23;5.05;;;3.10;;
11681;SDS011;5897;42.640;23.310;2023-07-28T04:51:50;5.45;;;3.45;;
11681;SDS011;5897;42.640;23.310;2023-07-28T04:54:18;7.43;;;3.58;;
11681;SDS011;5897;42.640;23.310;2023-07-28T04:56:45;4.80;;;3.28;;
11681;SDS011;5897;42.640;23.310;2023-07-28T04:59:15;5.70;;;3.50;;
11681;SDS011;5897;42.640;23.310;2023-07-28T05:01:41;4.93;;;3.00;;
11681;SDS011;5897;42.640;23.310;2023-07-28T05:04:08;4.05;;;3.28;;
11681;SDS011;5897;42.640;23.310;2023-07-28T05:06:35;4.18;;;3.22;;
11681;SDS011;5897;42.640;23.310;2023-07-28T05:09:02;3.90;;;3.40;;
11681;SDS011;5897;42.640;23.310;2023-07-28T05:11:30;4.30;;;3.15;;
11681;SDS011;5897;42.640;23.310;2023-07-28T05:13:57;3.45;;;3.00;;
11681;SDS011;5897;42.640;23.310;2023-07-28T05:16:23;6.68;;;3.00;;
11681;SDS011;5897;42.640;23.310;2023-07-28T05:18:50;3.35;;;3.00;;
11681;SDS011;5897;42.640;23.310;2023-07-28T05:21:17;3.92;;;3.35;;
11681;SDS011;5897;42.640;23.310;2023-07-28T05:23:44;5.13;;;3.38;;
11681;SDS011;5897;42.640;23.310;2023-07-28T05:26:10;6.32;;;3.65;;
11681;SDS011;5897;42.640;23.310;2023-07-28T05:28:38;6.20;;;3.97;;
11681;SDS011;5897;42.640;23.310;2023-07-28T05:31:06;7.38;;;4.95;;
11681;SDS011;5897;42.640;23.310;2023-07-28T05:33:33;5.78;;;3.97;;
11681;SDS011;5897;42.640;23.310;2023-07-28T05:36:00;5.50;;;3.42;;
11681;SDS011;5897;42.640;23.310;2023-07-28T05:38:27;6.00;;;3.70;;
11681;SDS011;5897;42.640;23.310;2023-07-28T05:40:57;5.93;;;3.20;;
11681;SDS011;5897;42.640;23.310;2023-07-28T05:43:26;5.10;;;3.40;;
11681;SDS011;5897;42.640;23.310;2023-07-28T05:45:54;5.32;;;3.30;;
11681;SDS011;5897;42.640;23.310;2023-07-28T05:48:21;7.40;;;3.60;;
11681;SDS011;5897;42.640;23.310;2023-07-28T05:50:48;5.15;;;3.40;;
11681;SDS011;5897;42.640;23.310;2023-07-28T05:53:16;5.60;;;3.40;;
11681;SDS011;5897;42.640;23.310;2023-07-28T05:55:43;4.95;;;3.13;;
11681;SDS011;5897;42.640;23.310;2023-07-28T05:58:10;6.68;;;3.17;;
11681;SDS011;5897;42.640;23.310;2023-07-28T06:00:38;4.57;;;3.10;;
11681;SDS011;5897;42.640;23.310;2023-07-28T06:03:06;7.13;;;3.10;;
11681;SDS011;5897;42.640;23.310;2023-07-28T06:05:33;9.05;;;3.22;;
11681;SDS011;5897;42.640;23.310;2023-07-28T06:08:00;5.43;;;2.90;;
11681;SDS011;5897;42.640;23.310;2023-07-28T06:10:27;4.78;;;3.13;;
11681;SDS011;5897;42.640;23.310;2023-07-28T06:12:54;5.97;;;3.33;;
11681;SDS011;5897;42.640;23.310;2023-07-28T06:15:21;4.95;;;4.43;;
11681;SDS011;5897;42.640;23.310;2023-07-28T06:17:47;5.35;;;3.70;;
11681;SDS011;5897;42.640;23.310;2023-07-28T06:20:15;9.32;;;4.68;;
11681;SDS011;5897;42.640;23.310;2023-07-28T06:22:42;13.73;;;7.18;;
11681;SDS011;5897;42.640;23.310;2023-07-28T06:25:09;10.43;;;4.80;;
11681;SDS011;5897;42.640;23.310;2023-07-28T06:27:36;6.80;;;3.53;;
11681;SDS011;5897;42.640;23.310;2023-07-28T06:30:04;9.85;;;3.53;;
11681;SDS011;5897;42.640;23.310;2023-07-28T06:32:32;4.28;;;3.08;;
11681;SDS011;5897;42.640;23.310;2023-07-28T06:34:58;4.75;;;3.20;;
11681;SDS011;5897;42.640;23.310;2023-07-28T06:37:26;4.10;;;2.90;;
11681;SDS011;5897;42.640;23.310;2023-07-28T06:39:53;9.05;;;3.33;;
11681;SDS011;5897;42.640;23.310;2023-07-28T06:42:21;6.22;;;2.80;;
11681;SDS011;5897;42.640;23.310;2023-07-28T06:44:49;5.32;;;2.65;;
11681;SDS011;5897;42.640;23.310;2023-07-28T06:47:16;6.07;;;2.70;;
11681;SDS011;5897;42.640;23.310;2023-07-28T06:49:43;6.65;;;2.30;;
11681;SDS011;5897;42.640;23.310;2023-07-28T06:52:10;4.55;;;2.17;;
11681;SDS011;5897;42.640;23.310;2023-07-28T06:54:38;3.47;;;2.10;;
11681;SDS011;5897;42.640;23.310;2023-07-28T06:57:05;4.50;;;2.30;;
11681;SDS011;5897;42.640;23.310;2023-07-28T06:59:32;4.40;;;2.33;;
11681;SDS011;5897;42.640;23.310;2023-07-28T07:01:59;5.63;;;2.65;;
11681;SDS011;5897;42.640;23.310;2023-07-28T07:04:26;7.72;;;2.70;;
11681;SDS011;5897;42.640;23.310;2023-07-28T07:06:53;4.28;;;2.58;;
11681;SDS011;5897;42.640;23.310;2023-07-28T07:09:19;5.03;;;2.13;;
11681;SDS011;5897;42.640;23.310;2023-07-28T07:11:48;5.85;;;2.40;;
11681;SDS011;5897;42.640;23.310;2023-07-28T07:14:15;7.28;;;2.65;;
11681;SDS011;5897;42.640;23.310;2023-07-28T07:16:42;6.63;;;2.42;;
11681;SDS011;5897;42.640;23.310;2023-07-28T07:19:09;6.25;;;2.72;;
11681;SDS011;5897;42.640;23.310;2023-07-28T07:21:36;4.18;;;2.40;;
11681;SDS011;5897;42.640;23.310;2023-07-28T07:24:03;5.35;;;2.50;;
11681;SDS011;5897;42.640;23.310;2023-07-28T07:26:30;5.32;;;2.40;;
11681;SDS011;5897;42.640;23.310;2023-07-28T07:28:58;5.18;;;2.28;;
11681;SDS011;5897;42.640;23.310;2023-07-28T07:31:25;4.53;;;2.33;;
11681;SDS011;5897;42.640;23.310;2023-07-28T07:33:52;3.75;;;2.70;;
11681;SDS011;5897;42.640;23.310;2023-07-28T07:36:19;4.00;;;2.53;;
11681;SDS011;5897;42.640;23.310;2023-07-28T07:38:46;7.15;;;2.92;;
11681;SDS011;5897;42.640;23.310;2023-07-28T07:41:14;5.10;;;2.50;;
11681;SDS011;5897;42.640;23.310;2023-07-28T07:43:44;7.78;;;2.85;;
11681;SDS011;5897;42.640;23.310;2023-07-28T07:46:13;3.85;;;2.70;;
11681;SDS011;5897;42.640;23.310;2023-07-28T07:48:40;7.10;;;3.35;;
11681;SDS011;5897;42.640;23.310;2023-07-28T07:51:06;7.15;;;4.10;;
11681;SDS011;5897;42.640;23.310;2023-07-28T07:53:34;8.43;;;4.55;;
11681;SDS011;5897;42.640;23.310;2023-07-28T07:56:01;4.70;;;3.25;;
11681;SDS011;5897;42.640;23.310;2023-07-28T07:58:29;7.32;;;3.00;;
11681;SDS011;5897;42.640;23.310;2023-07-28T08:00:56;7.65;;;2.88;;
11681;SDS011;5897;42.640;23.310;2023-07-28T08:03:25;10.02;;;2.70;;
11681;SDS011;5897;42.640;23.310;2023-07-28T08:05:52;6.97;;;2.80;;
11681;SDS011;5897;42.640;23.310;2023-07-28T08:08:19;8.63;;;2.95;;
11681;SDS011;5897;42.640;23.310;2023-07-28T08:10:46;7.15;;;2.83;;
11681;SDS011;5897;42.640;23.310;2023-07-28T08:13:13;6.68;;;2.70;;
11681;SDS011;5897;42.640;23.310;2023-07-28T08:15:40;4.43;;;2.40;;
11681;SDS011;5897;42.640;23.310;2023-07-28T08:18:09;7.95;;;2.70;;
11681;SDS011;5897;42.640;23.310;2023-07-28T08:20:38;5.55;;;2.22;;
11681;SDS011;5897;42.640;23.310;2023-07-28T08:23:05;8.90;;;2.88;;
11681;SDS011;5897;42.640;23.310;2023-07-28T08:25:32;3.47;;;2.40;;
11681;SDS011;5897;42.640;23.310;2023-07-28T08:27:59;6.85;;;2.80;;
11681;SDS011;5897;42.640;23.310;2023-07-28T08:30:26;2.80;;;2.42;;
11681;SDS011;5897;42.640;23.310;2023-07-28T08:32:53;6.97;;;3.40;;
11681;SDS011;5897;42.640;23.310;2023-07-28T08:35:20;5.10;;;2.63;;
11681;SDS011;5897;42.640;23.310;2023-07-28T08:37:48;6.20;;;2.90;;
11681;SDS011;5897;42.640;23.310;2023-07-28T08:40:14;6.60;;;2.65;;
11681;SDS011;5897;42.640;23.310;2023-07-28T08:42:42;8.02;;;2.40;;
11681;SDS011;5897;42.640;23.310;2023-07-28T08:45:10;6.65;;;2.35;;
11681;SDS011;5897;42.640;23.310;2023-07-28T08:47:38;7.10;;;2.33;;
11681;SDS011;5897;42.640;23.310;2023-07-28T08:50:05;4.25;;;2.38;;
11681;SDS011;5897;42.640;23.310;2023-07-28T08:52:32;5.13;;;2.85;;
11681;SDS011;5897;42.640;23.310;2023-07-28T08:55:00;6.28;;;2.95;;
11681;SDS011;5897;42.640;23.310;2023-07-28T08:57:28;6.88;;;3.33;;
11681;SDS011;5897;42.640;23.310;2023-07-28T08:59:54;5.68;;;2.90;;
11681;SDS011;5897;42.640;23.310;2023-07-28T09:02:22;5.35;;;2.60;;
11681;SDS011;5897;42.640;23.310;2023-07-28T09:04:49;3.50;;;2.30;;
11681;SDS011;5897;42.640;23.310;2023-07-28T09:07:15;5.10;;;2.95;;
11681;SDS011;5897;42.640;23.310;2023-07-28T09:09:42;6.57;;;2.63;;
11681;SDS011;5897;42.640;23.310;2023-07-28T09:12:10;6.75;;;2.55;;
11681;SDS011;5897;42.640;23.310;2023-07-28T09:14:37;4.00;;;2.65;;
11681;SDS011;5897;42.640;23.310;2023-07-28T09:17:08;5.60;;;2.53;;
11681;SDS011;5897;42.640;23.310;2023-07-28T09:19:48;4.15;;;2.53;;
11681;SDS011;5897;42.640;23.310;2023-07-28T09:22:17;7.53;;;2.80;;
11681;SDS011;5897;42.640;23.310;2023-07-28T09:24:44;5.88;;;4.50;;
11681;SDS011;5897;42.640;23.310;2023-07-28T09:27:20;8.65;;;3.22;;
11681;SDS011;5897;42.640;23.310;2023-07-28T09:29:48;6.05;;;2.53;;
11681;SDS011;5897;42.640;23.310;2023-07-28T09:32:16;5.93;;;3.28;;
11681;SDS011;5897;42.640;23.310;2023-07-28T09:34:58;5.90;;;2.33;;
11681;SDS011;5897;42.640;23.310;2023-07-28T09:37:34;5.47;;;2.53;;
11681;SDS011;5897;42.640;23.310;2023-07-28T09:40:03;3.25;;;2.30;;
11681;SDS011;5897;42.640;23.310;2023-07-28T09:42:33;5.80;;;2.45;;
11681;SDS011;5897;42.640;23.310;2023-07-28T09:45:01;4.82;;;2.47;;
11681;SDS011;5897;42.640;23.310;2023-07-28T09:47:28;4.30;;;2.55;;
11681;SDS011;5897;42.640;23.310;2023-07-28T09:49:59;7.15;;;2.70;;
11681;SDS011;5897;42.640;23.310;2023-07-28T09:52:29;5.03;;;2.35;;
11681;SDS011;5897;42.640;23.310;2023-07-28T09:54:59;6.07;;;2.47;;
11681;SDS011;5897;42.640;23.310;2023-07-28T09:57:29;8.02;;;4.00;;
11681;SDS011;5897;42.640;23.310;2023-07-28T10:00:02;3.80;;;2.30;;
11681;SDS011;5897;42.640;23.310;2023-07-28T10:02:32;6.00;;;2.38;;
11681;SDS011;5897;42.640;23.310;2023-07-28T10:04:59;5.90;;;2.55;;
11681;SDS011;5897;42.640;23.310;2023-07-28T10:07:26;6.72;;;3.17;;
11681;SDS011;5897;42.640;23.310;2023-07-28T10:09:53;8.32;;;2.70;;
11681;SDS011;5897;42.640;23.310;2023-07-28T10:12:23;8.00;;;2.50;;
11681;SDS011;5897;42.640;23.310;2023-07-28T10:15:00;6.40;;;2.85;;
11681;SDS011;5897;42.640;23.310;2023-07-28T10:17:30;6.20;;;3.78;;
11681;SDS011;5897;42.640;23.310;2023-07-28T10:19:57;7.38;;;2.50;;
11681;SDS011;5897;42.640;23.310;2023-07-28T10:22:25;4.95;;;2.33;;
11681;SDS011;5897;42.640;23.310;2023-07-28T10:24:53;7.22;;;2.50;;
11681;SDS011;5897;42.640;23.310;2023-07-28T10:27:30;5.47;;;2.25;;
11681;SDS011;5897;42.640;23.310;2023-07-28T10:30:00;5.60;;;2.25;;
11681;SDS011;5897;42.640;23.310;2023-07-28T10:32:34;5.45;;;2.40;;
11681;SDS011;5897;42.640;23.310;2023-07-28T10:35:06;4.15;;;2.30;;
11681;SDS011;5897;42.640;23.310;2023-07-28T10:37:34;4.22;;;2.20;;
11681;SDS011;5897;42.640;23.310;2023-07-28T10:42:57;7.15;;;2.67;;
11681;SDS011;5897;42.640;23.310;2023-07-28T10:45:26;8.50;;;2.50;;
11681;SDS011;5897;42.640;23.310;2023-07-28T10:47:55;4.25;;;2.30;;
11681;SDS011;5897;42.640;23.310;2023-07-28T10:50:25;7.80;;;2.30;;
11681;SDS011;5897;42.640;23.310;2023-07-28T10:52:54;5.78;;;1.90;;
11681;SDS011;5897;42.640;23.310;2023-07-28T10:55:21;2.00;;;1.52;;
11681;SDS011;5897;42.640;23.310;2023-07-28T10:57:50;1.95;;;1.73;;
11681;SDS011;5897;42.640;23.310;2023-07-28T11:00:19;3.22;;;1.65;;
11681;SDS011;5897;42.640;23.310;2023-07-28T11:02:49;2.05;;;1.58;;
11681;SDS011;5897;42.640;23.310;2023-07-28T11:05:18;2.55;;;1.63;;
11681;SDS011;5897;42.640;23.310;2023-07-28T11:07:47;3.40;;;1.80;;
11681;SDS011;5897;42.640;23.310;2023-07-28T11:10:14;1.90;;;1.70;;
11681;SDS011;5897;42.640;23.310;2023-07-28T11:12:42;1.80;;;1.60;;
11681;SDS011;5897;42.640;23.310;2023-07-28T11:15:10;4.15;;;1.80;;
11681;SDS011;5897;42.640;23.310;2023-07-28T11:17:39;2.97;;;1.58;;
11681;SDS011;5897;42.640;23.310;2023-07-28T11:20:15;2.70;;;1.60;;
11681;SDS011;5897;42.640;23.310;2023-07-28T11:22:42;4.60;;;1.70;;
11681;SDS011;5897;42.640;23.310;2023-07-28T11:25:10;3.45;;;1.85;;
11681;SDS011;5897;42.640;23.310;2023-07-28T11:27:37;3.35;;;2.03;;
11681;SDS011;5897;42.640;23.310;2023-07-28T11:30:04;3.10;;;1.80;;
11681;SDS011;5897;42.640;23.310;2023-07-28T11:32:34;4.18;;;1.88;;
11681;SDS011;5897;42.640;23.310;2023-07-28T11:35:03;1.90;;;1.70;;
11681;SDS011;5897;42.640;23.310;2023-07-28T11:37:32;2.47;;;1.83;;
11681;SDS011;5897;42.640;23.310;2023-07-28T11:40:00;1.90;;;1.67;;
11681;SDS011;5897;42.640;23.310;2023-07-28T11:42:32;3.30;;;2.00;;
11681;SDS011;5897;42.640;23.310;2023-07-28T11:44:59;2.78;;;1.63;;
11681;SDS011;5897;42.640;23.310;2023-07-28T11:47:26;2.72;;;1.90;;
11681;SDS011;5897;42.640;23.310;2023-07-28T11:49:54;3.47;;;1.80;;
11681;SDS011;5897;42.640;23.310;2023-07-28T11:52:21;4.57;;;2.20;;
11681;SDS011;5897;42.640;23.310;2023-07-28T11:54:49;2.63;;;2.05;;
11681;SDS011;5897;42.640;23.310;2023-07-28T11:57:17;4.45;;;1.90;;
11681;SDS011;5897;42.640;23.310;2023-07-28T11:59:44;3.72;;;1.77;;
11681;SDS011;5897;42.640;23.310;2023-07-28T12:02:11;3.75;;;2.13;;
11681;SDS011;5897;42.640;23.310;2023-07-28T12:04:38;4.35;;;2.00;;
11681;SDS011;5897;42.640;23.310;2023-07-28T12:07:07;2.28;;;2.00;;
11681;SDS011;5897;42.640;23.310;2023-07-28T12:09:50;2.92;;;2.00;;
11681;SDS011;5897;42.640;23.310;2023-07-28T12:12:18;3.92;;;2.10;;
11681;SDS011;5897;42.640;23.310;2023-07-28T12:14:49;2.25;;;1.77;;
11681;SDS011;5897;42.640;23.310;2023-07-28T12:17:17;2.45;;;1.88;;
11681;SDS011;5897;42.640;23.310;2023-07-28T12:19:55;2.80;;;2.00;;
11681;SDS011;5897;42.640;23.310;2023-07-28T12:22:23;1.98;;;1.70;;
11681;SDS011;5897;42.640;23.310;2023-07-28T12:24:51;2.42;;;1.73;;
11681;SDS011;5897;42.640;23.310;2023-07-28T12:27:18;6.03;;;1.92;;
11681;SDS011;5897;42.640;23.310;2023-07-28T12:29:48;3.13;;;1.92;;
11681;SDS011;5897;42.640;23.310;2023-07-28T12:32:15;2.50;;;1.92;;
11681;SDS011;5897;42.640;23.310;2023-07-28T12:34:42;2.58;;;1.90;;
11681;SDS011;5897;42.640;23.310;2023-07-28T12:37:08;3.80;;;1.90;;
11681;SDS011;5897;42.640;23.310;2023-07-28T12:39:36;3.70;;;1.90;;
11681;SDS011;5897;42.640;23.310;2023-07-28T12:42:06;2.13;;;1.90;;
11681;SDS011;5897;42.640;23.310;2023-07-28T12:44:33;2.25;;;1.90;;
11681;SDS011;5897;42.640;23.310;2023-07-28T12:47:00;3.28;;;1.80;;
11681;SDS011;5897;42.640;23.310;2023-07-28T12:49:27;2.67;;;2.17;;
11681;SDS011;5897;42.640;23.310;2023-07-28T12:51:55;2.58;;;1.77;;
11681;SDS011;5897;42.640;23.310;2023-07-28T12:54:22;3.42;;;2.00;;
11681;SDS011;5897;42.640;23.310;2023-07-28T12:56:49;1.92;;;1.80;;
11681;SDS011;5897;42.640;23.310;2023-07-28T12:59:17;3.42;;;1.90;;
11681;SDS011;5897;42.640;23.310;2023-07-28T13:01:44;4.82;;;2.17;;
11681;SDS011;5897;42.640;23.310;2023-07-28T13:04:11;2.15;;;1.73;;
11681;SDS011;5897;42.640;23.310;2023-07-28T13:06:38;2.67;;;2.00;;
11681;SDS011;5897;42.640;23.310;2023-07-28T13:09:06;3.63;;;1.90;;
11681;SDS011;5897;42.640;23.310;2023-07-28T13:11:33;1.80;;;1.70;;
11681;SDS011;5897;42.640;23.310;2023-07-28T13:14:00;3.95;;;1.80;;
11681;SDS011;5897;42.640;23.310;2023-07-28T13:16:28;2.55;;;1.90;;
11681;SDS011;5897;42.640;23.310;2023-07-28T13:18:55;2.17;;;1.70;;
11681;SDS011;5897;42.640;23.310;2023-07-28T13:21:22;3.30;;;1.45;;
11681;SDS011;5897;42.640;23.310;2023-07-28T13:23:49;1.83;;;1.73;;
11681;SDS011;5897;42.640;23.310;2023-07-28T13:26:16;3.63;;;1.80;;
11681;SDS011;5897;42.640;23.310;2023-07-28T13:28:42;2.25;;;1.70;;
11681;SDS011;5897;42.640;23.310;2023-07-28T13:31:12;2.25;;;1.65;;
11681;SDS011;5897;42.640;23.310;2023-07-28T13:33:40;3.03;;;1.80;;
11681;SDS011;5897;42.640;23.310;2023-07-28T13:36:07;3.45;;;1.67;;
11681;SDS011;5897;42.640;23.310;2023-07-28T13:38:33;3.53;;;1.83;;
11681;SDS011;5897;42.640;23.310;2023-07-28T13:41:01;4.72;;;1.98;;
11681;SDS011;5897;42.640;23.310;2023-07-28T13:43:30;2.38;;;1.75;;
11681;SDS011;5897;42.640;23.310;2023-07-28T13:45:57;2.72;;;1.70;;
11681;SDS011;5897;42.640;23.310;2023-07-28T13:48:24;5.13;;;1.95;;
11681;SDS011;5897;42.640;23.310;2023-07-28T13:50:52;2.20;;;1.80;;
11681;SDS011;5897;42.640;23.310;2023-07-28T13:53:19;2.72;;;1.70;;
11681;SDS011;5897;42.640;23.310;2023-07-28T13:55:45;1.90;;;1.70;;
11681;SDS011;5897;42.640;23.310;2023-07-28T13:58:12;3.53;;;1.92;;
11681;SDS011;5897;42.640;23.310;2023-07-28T14:00:39;3.67;;;1.80;;
11681;SDS011;5897;42.640;23.310;2023-07-28T14:03:05;2.15;;;1.67;;
11681;SDS011;5897;42.640;23.310;2023-07-28T14:05:32;2.58;;;1.70;;
11681;SDS011;5897;42.640;23.310;2023-07-28T14:08:00;2.45;;;1.75;;
11681;SDS011;5897;42.640;23.310;2023-07-28T14:10:27;2.13;;;1.80;;
11681;SDS011;5897;42.640;23.310;2023-07-28T14:12:54;3.22;;;2.17;;
11681;SDS011;5897;42.640;23.310;2023-07-28T14:15:21;1.98;;;1.77;;
11681;SDS011;5897;42.640;23.310;2023-07-28T14:17:47;2.97;;;1.77;;
11681;SDS011;5897;42.640;23.310;2023-07-28T14:20:14;2.40;;;1.90;;
11681;SDS011;5897;42.640;23.310;2023-07-28T14:22:41;4.45;;;2.15;;
11681;SDS011;5897;42.640;23.310;2023-07-28T14:25:09;2.55;;;1.90;;
11681;SDS011;5897;42.640;23.310;2023-07-28T14:27:36;2.03;;;1.80;;
11681;SDS011;5897;42.640;23.310;2023-07-28T14:30:03;3.03;;;1.92;;
11681;SDS011;5897;42.640;23.310;2023-07-28T14:32:31;1.92;;;1.83;;
11681;SDS011;5897;42.640;23.310;2023-07-28T14:34:57;3.20;;;1.90;;
11681;SDS011;5897;42.640;23.310;2023-07-28T14:37:24;4.65;;;1.70;;
11681;SDS011;5897;42.640;23.310;2023-07-28T14:39:51;1.92;;;1.77;;
11681;SDS011;5897;42.640;23.310;2023-07-28T14:42:19;3.40;;;1.90;;
11681;SDS011;5897;42.640;23.310;2023-07-28T14:44:46;3.92;;;1.70;;
11681;SDS011;5897;42.640;23.310;2023-07-28T14:47:12;2.15;;;1.90;;
11681;SDS011;5897;42.640;23.310;2023-07-28T14:49:39;4.25;;;1.67;;
11681;SDS011;5897;42.640;23.310;2023-07-28T14:52:06;3.90;;;1.90;;
11681;SDS011;5897;42.640;23.310;2023-07-28T14:54:33;1.90;;;1.80;;